createdAt,value
2022-09-26T00:00:10.543Z,100117.16
2022-09-26T00:03:02.750Z,100122.47
2022-09-26T00:05:36.046Z,100116.28
2022-09-26T00:08:05.451Z,100111.84
2022-09-26T00:10:34.653Z,100114.50
2022-09-26T00:13:03.613Z,100106.53
2022-09-26T00:15:32.723Z,100096.81
2022-09-26T00:18:01.659Z,100109.19
2022-09-26T00:20:30.638Z,100101.22
2022-09-26T00:23:01.157Z,100101.22
2022-09-26T00:25:30.127Z,100100.28
2022-09-26T00:27:59.027Z,100092.31
2022-09-26T00:30:28.357Z,100089.56
2022-09-26T00:32:57.486Z,100086.00
2022-09-26T00:35:26.459Z,100091.25
2022-09-26T00:37:55.634Z,100081.44
2022-09-26T00:40:28.224Z,100077.81
2022-09-26T00:42:57.713Z,100072.44
2022-09-26T00:45:31.316Z,100070.59
2022-09-26T00:48:03.506Z,100069.59
2022-09-26T00:50:36.409Z,100075.69
2022-09-26T00:53:09.151Z,100065.81
2022-09-26T00:55:43.260Z,100070.09
2022-09-26T00:58:17.912Z,100061.13
2022-09-26T01:00:50.184Z,100057.41
2022-09-26T01:03:22.058Z,100053.78
2022-09-26T01:05:51.544Z,100062.50
2022-09-26T01:08:23.075Z,100068.63
2022-09-26T01:10:53.794Z,100056.13
2022-09-26T01:13:23.308Z,100046.28
2022-09-26T01:15:52.476Z,100044.34
2022-09-26T01:18:22.360Z,100044.22
2022-09-26T01:20:58.215Z,100042.38
2022-09-26T01:23:56.850Z,100034.28
2022-09-26T01:26:59.227Z,100036.75
2022-09-26T01:30:01.311Z,100031.31
2022-09-26T01:33:08.146Z,100034.72
2022-09-26T01:35:51.477Z,100034.56
2022-09-26T01:38:29.348Z,100034.47
2022-09-26T01:41:12.816Z,100036.06
2022-09-26T01:43:49.931Z,100036.88
2022-09-26T01:46:31.060Z,100032.31
2022-09-26T01:49:09.741Z,100022.47
2022-09-26T01:51:49.804Z,100021.47
2022-09-26T01:54:22.937Z,100014.28
2022-09-26T01:56:58.356Z,100021.25
2022-09-26T01:59:33.195Z,100015.78
2022-09-26T02:02:09.532Z,100014.78
2022-09-26T02:04:44.642Z,100015.50
2022-09-26T02:07:17.913Z,100014.44
2022-09-26T02:09:59.326Z,100006.41
2022-09-26T02:12:34.144Z,100016.00
2022-09-26T02:15:08.097Z,100007.03
2022-09-26T02:17:41.908Z,99997.22
2022-09-26T02:20:17.318Z,99998.94
2022-09-26T02:22:48.016Z,100000.53
2022-09-26T02:25:17.481Z,99996.94
2022-09-26T02:27:46.528Z,99996.88
2022-09-26T02:31:17.800Z,100003.88
2022-09-26T02:33:47.754Z,99994.94
2022-09-26T02:36:19.329Z,99997.56
2022-09-26T02:38:49.189Z,99994.81
2022-09-26T02:41:51.520Z,99986.75
2022-09-26T02:44:49.653Z,99991.09
2022-09-26T02:47:47.928Z,99988.34
2022-09-26T02:50:32.878Z,99983.03
2022-09-26T02:53:20.137Z,99982.03
2022-09-26T02:56:09.352Z,99975.78
2022-09-26T02:58:48.295Z,99981.91
2022-09-26T03:01:22.648Z,99969.47
2022-09-26T03:04:00.973Z,99981.75
2022-09-26T03:06:35.696Z,99980.84
2022-09-26T03:09:07.779Z,99970.09
2022-09-26T03:11:37.592Z,99965.66
2022-09-26T03:14:08.804Z,99952.31
2022-09-26T03:16:44.572Z,99950.47
2022-09-26T03:19:22.557Z,99956.66
2022-09-26T03:21:51.930Z,99954.84
2022-09-26T03:24:24.082Z,99954.84
2022-09-26T03:26:53.701Z,99943.34
2022-09-26T03:29:23.976Z,99936.28
2022-09-26T03:31:53.776Z,99940.69
2022-09-26T03:34:23.045Z,99942.47
2022-09-26T03:36:53.047Z,99943.34
2022-09-26T03:39:24.125Z,99934.47
2022-09-26T03:42:05.996Z,99929.22
2022-09-26T03:44:35.889Z,99925.69
2022-09-26T03:47:14.609Z,99914.16
2022-09-26T03:49:46.138Z,99918.63
2022-09-26T03:52:15.936Z,99913.28
2022-09-26T03:54:47.898Z,99917.78
2022-09-26T03:57:19.031Z,99916.91
2022-09-26T03:59:55.351Z,99908.91
2022-09-26T04:02:25.529Z,99907.16
2022-09-26T04:05:10.204Z,99909.81
2022-09-26T04:07:39.504Z,99905.44
2022-09-26T04:10:10.913Z,99907.16
2022-09-26T04:12:41.582Z,99912.50
2022-09-26T04:15:12.163Z,99907.16
2022-09-26T04:17:42.196Z,99908.13
2022-09-26T04:20:11.434Z,99905.44
2022-09-26T04:22:42.335Z,99908.03
2022-09-26T04:25:12.938Z,99897.38
2022-09-26T04:27:42.229Z,99904.44
2022-09-26T04:30:13.020Z,99902.59
2022-09-26T04:32:54.249Z,99901.72
2022-09-26T04:35:38.966Z,99899.91
2022-09-26T04:38:09.556Z,99903.44
2022-09-26T04:40:42.950Z,99906.03
2022-09-26T04:43:14.239Z,99908.63
2022-09-26T04:45:44.108Z,99910.38
2022-09-26T04:48:15.275Z,99904.09
2022-09-26T04:51:12.351Z,99903.19
2022-09-26T04:53:42.619Z,99901.31
2022-09-26T04:56:21.573Z,99894.94
2022-09-26T04:58:51.230Z,99889.63
2022-09-26T05:01:22.381Z,99901.06
2022-09-26T05:04:17.519Z,99893.94
2022-09-26T05:06:46.744Z,99902.72
2022-09-26T05:09:25.915Z,99906.19
2022-09-26T05:12:02.080Z,99898.06
2022-09-26T05:14:34.012Z,99888.19
2022-09-26T05:17:03.860Z,99890.78
2022-09-26T05:19:33.009Z,99894.25
2022-09-26T05:22:38.279Z,99895.03
2022-09-26T05:25:25.248Z,99882.59
2022-09-26T05:27:55.850Z,99892.25
2022-09-26T05:30:31.406Z,99884.16
2022-09-26T05:33:01.155Z,99884.03
2022-09-26T05:35:35.333Z,99883.88
2022-09-26T05:38:06.313Z,99883.75
2022-09-26T05:40:55.518Z,99892.53
2022-09-26T05:43:29.184Z,99878.13
2022-09-26T05:45:59.921Z,99880.66
2022-09-26T05:48:35.332Z,99868.91
2022-09-26T05:51:06.468Z,99863.41
2022-09-26T05:53:35.770Z,99875.66
2022-09-26T05:56:05.415Z,99879.97
2022-09-26T05:58:56.171Z,99870.03
2022-09-26T06:01:57.692Z,99867.06
2022-09-26T06:04:41.161Z,99865.97
2022-09-26T06:07:33.603Z,99866.63
2022-09-26T06:10:07.196Z,99864.66
2022-09-26T06:12:45.433Z,99875.91
2022-09-26T06:15:18.620Z,99865.00
2022-09-26T06:17:48.284Z,99860.28
2022-09-26T06:20:17.535Z,99852.84
2022-09-26T06:22:46.539Z,99849.06
2022-09-26T06:25:15.867Z,99837.16
2022-09-26T06:27:45.100Z,99847.50
2022-09-26T06:30:14.693Z,99854.28
2022-09-26T06:32:46.400Z,99850.31
2022-09-26T06:35:22.803Z,99858.84
2022-09-26T06:38:10.626Z,99846.75
2022-09-26T06:40:40.059Z,99847.22
2022-09-26T06:43:09.163Z,99853.78
2022-09-26T06:45:56.629Z,99846.94
2022-09-26T06:48:32.174Z,99852.56
2022-09-26T06:51:04.053Z,99852.00
2022-09-26T06:53:34.896Z,99854.91
2022-09-26T06:56:05.107Z,99859.88
2022-09-26T06:58:34.616Z,99870.06
2022-09-26T07:01:07.641Z,99866.84
2022-09-26T07:04:15.801Z,99878.84
2022-09-26T07:07:07.335Z,99873.09
2022-09-26T07:09:36.273Z,99868.16
2022-09-26T07:12:16.544Z,99873.94
2022-09-26T07:14:50.066Z,99870.84
2022-09-26T07:17:28.393Z,99866.94
2022-09-26T07:20:13.305Z,99866.50
2022-09-26T07:23:08.648Z,99854.47
2022-09-26T07:25:39.579Z,99847.84
2022-09-26T07:28:10.768Z,99854.56
2022-09-26T07:30:50.826Z,99857.66
2022-09-26T07:33:39.561Z,99848.28
2022-09-26T07:36:11.812Z,99858.56
2022-09-26T07:38:42.737Z,99853.72
2022-09-26T07:41:12.324Z,99855.91
2022-09-26T07:46:50.207Z,99851.44
2022-09-26T07:49:37.023Z,99852.63
2022-09-26T07:52:25.988Z,99854.66
2022-09-26T07:55:20.763Z,99851.31
2022-09-26T07:58:10.091Z,99851.47
2022-09-26T08:00:52.509Z,99858.06
2022-09-26T08:03:50.499Z,99859.25
2022-09-26T08:06:28.599Z,99841.88
2022-09-26T08:08:59.449Z,99850.31
2022-09-26T08:11:46.914Z,99851.66
2022-09-26T08:14:53.069Z,99848.41
2022-09-26T08:17:37.060Z,99855.84
2022-09-26T08:20:07.608Z,99848.25
2022-09-26T08:22:37.135Z,99841.31
2022-09-26T08:25:09.884Z,99849.75
2022-09-26T08:27:53.277Z,99845.66
2022-09-26T08:30:25.820Z,99856.66
2022-09-26T08:32:59.295Z,99859.69
2022-09-26T08:35:29.455Z,99847.47
2022-09-26T08:38:17.375Z,99842.34
2022-09-26T08:41:22.161Z,99849.69
2022-09-26T08:44:32.090Z,99855.28
2022-09-26T08:47:33.695Z,99851.09
2022-09-26T08:50:24.256Z,99855.88
2022-09-26T08:52:56.877Z,99848.13
2022-09-26T08:55:30.459Z,99847.81
2022-09-26T08:58:05.865Z,99846.41
2022-09-26T09:00:38.173Z,99843.31
2022-09-26T09:03:24.383Z,99846.31
2022-09-26T09:06:01.257Z,99849.41
2022-09-26T09:08:36.202Z,99838.97
2022-09-26T09:11:23.012Z,99842.84
2022-09-26T09:14:11.240Z,99842.19
2022-09-26T09:17:10.882Z,99840.66
2022-09-26T09:20:17.586Z,99833.75
2022-09-26T09:23:36.030Z,99843.81
2022-09-26T09:29:25.143Z,99850.59
2022-09-26T09:32:22.698Z,99837.41
2022-09-26T09:35:19.947Z,99844.06
2022-09-26T09:38:03.847Z,99851.69
2022-09-26T09:40:46.688Z,99844.09
2022-09-26T09:43:26.123Z,99852.72
2022-09-26T09:46:04.299Z,99854.19
2022-09-26T09:48:34.056Z,99853.72
2022-09-26T09:51:13.382Z,99857.16
2022-09-26T09:53:59.259Z,99870.19
2022-09-26T09:56:41.080Z,99861.75
2022-09-26T09:59:40.698Z,99855.03
2022-09-26T10:02:23.707Z,99860.94
2022-09-26T10:04:59.723Z,99853.34
2022-09-26T10:07:29.385Z,99863.66
2022-09-26T10:10:26.113Z,99864.28
2022-09-26T10:13:14.546Z,99857.56
2022-09-26T10:16:05.772Z,99857.09
2022-09-26T10:19:03.521Z,99852.22
2022-09-26T10:21:39.528Z,99860.91
2022-09-26T10:24:24.048Z,99863.38
2022-09-26T10:26:59.447Z,99859.59
2022-09-26T10:29:38.414Z,99857.63
2022-09-26T10:32:09.645Z,99863.78
2022-09-26T10:34:42.632Z,99858.38
2022-09-26T10:37:24.021Z,99867.34
2022-09-26T10:40:18.063Z,99862.81
2022-09-26T10:42:47.549Z,99860.84
2022-09-26T10:45:20.471Z,99854.34
2022-09-26T10:48:08.902Z,99849.56
2022-09-26T10:51:02.145Z,99852.03
2022-09-26T10:53:40.357Z,99844.69
2022-09-26T10:56:13.278Z,99852.50
2022-09-26T10:58:47.122Z,99849.81
2022-09-26T11:01:26.535Z,99855.22
2022-09-26T11:04:00.124Z,99859.78
2022-09-26T11:06:35.426Z,99855.34
2022-09-26T11:09:21.556Z,99854.47
2022-09-26T11:12:25.530Z,99852.78
2022-09-26T11:14:59.945Z,99856.44
2022-09-26T11:17:47.541Z,99850.19
2022-09-26T11:20:28.894Z,99855.59
2022-09-26T11:23:07.952Z,99863.81
2022-09-26T11:25:58.426Z,99856.69
2022-09-26T11:28:36.572Z,99857.66
2022-09-26T11:31:27.719Z,99855.97
2022-09-26T11:34:21.872Z,99856.06
2022-09-26T11:37:19.460Z,99857.19
2022-09-26T11:40:20.717Z,99853.75
2022-09-26T11:43:14.548Z,99848.34
2022-09-26T11:46:04.407Z,99848.34
2022-09-26T11:49:31.208Z,99849.44
2022-09-26T11:52:46.883Z,99844.16
2022-09-26T11:55:29.279Z,99851.50
2022-09-26T11:58:05.234Z,99843.41
2022-09-26T12:00:44.959Z,99854.09
2022-09-26T12:03:37.179Z,99855.94
2022-09-26T12:06:20.468Z,99859.38
2022-09-26T12:09:12.024Z,99851.88
2022-09-26T12:11:53.462Z,99849.56
2022-09-26T12:14:39.299Z,99849.06
2022-09-26T12:17:19.664Z,99847.75
2022-09-26T12:19:58.267Z,99850.81
2022-09-26T12:22:36.138Z,99842.59
2022-09-26T12:25:27.342Z,99849.59
2022-09-26T12:28:16.565Z,99856.69
2022-09-26T12:30:57.969Z,99844.94
2022-09-26T12:34:03.593Z,99850.34
2022-09-26T12:36:48.020Z,99845.06
2022-09-26T12:39:38.291Z,99839.91
2022-09-26T12:42:26.626Z,99840.13
2022-09-26T12:45:26.701Z,99847.38
2022-09-26T12:48:22.941Z,99834.84
2022-09-26T12:51:08.225Z,99837.31
2022-09-26T12:53:56.272Z,99836.19
2022-09-26T12:56:40.066Z,99832.31
2022-09-26T12:59:23.494Z,99832.78
2022-09-26T13:02:14.611Z,99827.00
2022-09-26T13:05:17.676Z,99817.53
2022-09-26T13:07:57.409Z,99819.88
2022-09-26T13:10:40.976Z,99814.09
2022-09-26T13:13:40.966Z,99812.75
2022-09-26T13:16:26.449Z,99810.53
2022-09-26T13:19:01.649Z,99818.13
2022-09-26T13:21:44.852Z,99814.06
2022-09-26T13:24:21.721Z,99809.03
2022-09-26T13:26:54.796Z,99805.47
2022-09-26T13:29:28.640Z,99817.09
2022-09-26T13:32:11.348Z,99821.59
2022-09-26T13:34:47.881Z,99818.25
2022-09-26T13:37:38.311Z,99816.16
2022-09-26T13:40:22.511Z,99811.59
2022-09-26T13:43:02.792Z,99815.19
2022-09-26T13:45:46.431Z,99817.13
2022-09-26T13:48:26.411Z,99816.53
2022-09-26T13:51:12.920Z,99816.91
2022-09-26T13:53:51.101Z,99807.34
2022-09-26T13:56:51.247Z,99808.72
2022-09-26T13:59:50.188Z,99806.41
2022-09-26T14:02:23.515Z,99801.63
2022-09-26T14:04:54.332Z,99808.50
2022-09-26T14:08:05.027Z,99798.22
2022-09-26T14:10:39.399Z,99800.56
2022-09-26T14:13:20.251Z,99805.63
2022-09-26T14:16:31.777Z,99792.72
2022-09-26T14:19:07.155Z,99793.34
2022-09-26T14:21:39.613Z,99788.59
2022-09-26T14:24:33.791Z,99789.34
2022-09-26T14:27:39.564Z,99793.63
2022-09-26T14:30:25.902Z,99800.63
2022-09-26T14:33:02.261Z,99794.88
2022-09-26T14:35:35.017Z,99801.72
2022-09-26T14:38:10.760Z,99803.09
2022-09-26T14:40:40.709Z,99799.00
2022-09-26T14:43:17.953Z,99796.78
2022-09-26T14:45:50.351Z,99788.94
2022-09-26T14:48:35.832Z,99795.56
2022-09-26T14:51:25.685Z,99792.13
2022-09-26T14:54:00.480Z,99786.97
2022-09-26T14:56:42.878Z,99792.47
2022-09-26T14:59:42.097Z,99799.09
2022-09-26T15:02:46.449Z,99797.50
2022-09-26T15:05:25.230Z,99795.03
2022-09-26T15:08:00.362Z,99793.53
2022-09-26T15:10:42.829Z,99794.03
2022-09-26T15:13:26.437Z,99794.25
2022-09-26T15:16:10.003Z,99782.13
2022-09-26T15:18:42.507Z,99774.25
2022-09-26T15:21:19.629Z,99787.25
2022-09-26T15:23:53.670Z,99783.16
2022-09-26T15:26:26.198Z,99793.34
2022-09-26T15:28:57.666Z,99783.03
2022-09-26T15:31:30.204Z,99784.13
2022-09-26T15:34:02.821Z,99784.47
2022-09-26T15:36:37.345Z,99780.16
2022-09-26T15:39:38.041Z,99778.81
2022-09-26T15:42:39.621Z,99769.25
2022-09-26T15:45:27.267Z,99769.59
2022-09-26T15:47:58.795Z,99765.28
2022-09-26T15:50:32.887Z,99771.75
2022-09-26T15:53:07.833Z,99768.56
2022-09-26T15:55:49.077Z,99769.78
2022-09-26T15:58:23.273Z,99768.25
2022-09-26T16:00:54.181Z,99773.00
2022-09-26T16:03:48.949Z,99768.94
2022-09-26T16:06:31.190Z,99774.53
2022-09-26T16:09:07.831Z,99772.09
2022-09-26T16:11:47.673Z,99772.31
2022-09-26T16:14:30.172Z,99760.06
2022-09-26T16:17:11.020Z,99764.81
2022-09-26T16:19:46.151Z,99761.38
2022-09-26T16:22:44.559Z,99765.28
2022-09-26T16:25:34.510Z,99771.00
2022-09-26T16:28:42.503Z,99771.44
2022-09-26T16:31:26.904Z,99770.91
2022-09-26T16:33:58.463Z,99758.78
2022-09-26T16:36:29.903Z,99758.22
2022-09-26T16:39:02.079Z,99761.25
2022-09-26T16:44:35.255Z,99763.78
2022-09-26T16:47:29.184Z,99763.22
2022-09-26T16:49:58.634Z,99762.81
2022-09-26T16:52:34.419Z,99763.25
2022-09-26T16:55:06.076Z,99755.38
2022-09-26T16:57:39.170Z,99768.31
2022-09-26T17:00:35.440Z,99764.22
2022-09-26T17:03:15.193Z,99768.22
2022-09-26T17:05:44.502Z,99772.09
2022-09-26T17:08:13.596Z,99757.13
2022-09-26T17:10:43.505Z,99757.44
2022-09-26T17:13:17.107Z,99749.69
2022-09-26T17:15:49.074Z,99751.81
2022-09-26T17:18:22.113Z,99754.81
2022-09-26T17:20:52.016Z,99759.69
2022-09-26T17:23:40.019Z,99755.50
2022-09-26T17:26:20.500Z,99757.75
2022-09-26T17:28:50.614Z,99750.84
2022-09-26T17:31:22.680Z,99755.56
2022-09-26T17:33:54.803Z,99755.78
2022-09-26T17:36:27.351Z,99757.81
2022-09-26T17:38:59.701Z,99751.78
2022-09-26T17:41:31.420Z,99761.66
2022-09-26T17:44:01.067Z,99754.78
2022-09-26T17:46:35.244Z,99753.09
2022-09-26T17:49:06.406Z,99749.66
2022-09-26T17:51:36.375Z,99746.22
2022-09-26T17:54:07.590Z,99744.59
2022-09-26T17:56:36.945Z,99742.97
2022-09-26T17:59:12.509Z,99742.19
2022-09-26T18:01:43.373Z,99747.69
2022-09-26T18:04:17.971Z,99747.00
2022-09-26T18:06:47.420Z,99748.94
2022-09-26T18:09:17.246Z,99746.38
2022-09-26T18:11:51.403Z,99740.34
2022-09-26T18:14:20.976Z,99743.22
2022-09-26T18:16:52.615Z,99740.78
2022-09-26T18:19:22.423Z,99733.84
2022-09-26T18:21:55.672Z,99744.59
2022-09-26T18:24:29.661Z,99734.94
2022-09-26T18:27:03.976Z,99735.16
2022-09-26T18:29:38.983Z,99726.44
2022-09-26T18:32:18.715Z,99726.53
2022-09-26T18:34:50.564Z,99727.63
2022-09-26T18:37:19.662Z,99712.66
2022-09-26T18:39:54.367Z,99711.91
2022-09-26T18:42:25.494Z,99722.84
2022-09-26T18:45:01.366Z,99711.38
2022-09-26T18:47:37.435Z,99722.22
2022-09-26T18:50:08.378Z,99733.03
2022-09-26T18:52:37.709Z,99738.56
2022-09-26T18:55:35.821Z,99744.88
2022-09-26T18:58:23.770Z,99760.97
2022-09-26T19:00:56.731Z,99760.22
2022-09-26T19:03:30.957Z,99761.19
2022-09-26T19:06:06.033Z,99757.72
2022-09-26T19:08:38.512Z,99769.31
2022-09-26T19:11:13.119Z,99759.66
2022-09-26T19:13:44.633Z,99762.44
2022-09-26T19:16:14.408Z,99767.91
2022-09-26T19:18:45.838Z,99761.69
2022-09-26T19:21:24.154Z,99758.34
2022-09-26T19:23:53.969Z,99756.63
2022-09-26T19:26:31.524Z,99771.00
2022-09-26T19:29:02.374Z,99761.44
2022-09-26T19:31:31.808Z,99758.81
2022-09-26T19:34:03.564Z,99768.72
2022-09-26T19:36:33.009Z,99759.13
2022-09-26T19:39:02.363Z,99757.41
2022-09-26T19:41:31.464Z,99754.84
2022-09-26T19:44:02.406Z,99740.66
2022-09-26T19:46:31.566Z,99742.59
2022-09-26T19:49:03.188Z,99739.13
2022-09-26T19:51:35.378Z,99734.84
2022-09-26T19:54:06.415Z,99729.66
2022-09-26T19:56:36.130Z,99725.28
2022-09-26T19:59:05.732Z,99722.66
2022-09-26T20:01:35.315Z,99707.63
2022-09-26T20:04:08.555Z,99716.66
2022-09-26T20:06:37.685Z,99708.78
2022-09-26T20:09:14.701Z,99712.44
2022-09-26T20:11:43.920Z,99709.13
2022-09-26T20:14:25.950Z,99709.19
2022-09-26T20:16:58.537Z,99711.97
2022-09-26T20:19:35.468Z,99704.97
2022-09-26T20:22:07.486Z,99697.16
2022-09-26T20:24:39.887Z,99703.56
2022-09-26T20:27:15.666Z,99702.88
2022-09-26T20:30:03.113Z,99690.63
2022-09-26T20:32:33.098Z,99689.88
2022-09-26T20:35:06.123Z,99685.56
2022-09-26T20:37:41.212Z,99689.31
2022-09-26T20:40:17.790Z,99685.00
2022-09-26T20:42:50.282Z,99686.06
2022-09-26T20:45:23.888Z,99678.13
2022-09-26T20:47:53.040Z,99682.72
2022-09-26T20:50:23.890Z,99675.63
2022-09-26T20:52:53.461Z,99677.66
2022-09-26T20:55:22.419Z,99683.94
2022-09-26T20:57:51.895Z,99681.47
2022-09-26T21:00:22.432Z,99678.03
2022-09-26T21:02:54.461Z,99677.16
2022-09-26T21:05:27.440Z,99673.63
2022-09-26T21:07:58.683Z,99680.03
2022-09-26T21:10:29.519Z,99665.78
2022-09-26T21:12:59.850Z,99668.66
2022-09-26T21:15:31.326Z,99662.53
2022-09-26T21:18:01.772Z,99667.03
2022-09-26T21:20:33.992Z,99675.16
2022-09-26T21:23:22.505Z,99669.03
2022-09-26T21:25:52.100Z,99667.31
2022-09-26T21:28:26.544Z,99659.38
2022-09-26T21:30:58.709Z,99668.28
2022-09-26T21:33:28.167Z,99651.53
2022-09-26T21:35:58.827Z,99659.66
2022-09-26T21:38:28.185Z,99667.69
2022-09-26T21:41:01.356Z,99661.56
2022-09-26T21:43:36.449Z,99659.94
2022-09-26T21:46:05.782Z,99661.84
2022-09-26T21:48:35.177Z,99660.22
2022-09-26T21:51:08.293Z,99657.66
2022-09-26T21:53:43.259Z,99652.41
2022-09-26T21:56:17.336Z,99656.97
2022-09-26T21:58:47.321Z,99653.44
2022-09-26T22:01:16.458Z,99657.16
2022-09-26T22:03:45.483Z,99652.75
2022-09-26T22:06:16.107Z,99655.50
2022-09-26T22:08:45.283Z,99646.63
2022-09-26T22:11:14.461Z,99644.88
2022-09-26T22:13:43.658Z,99644.88
2022-09-26T22:16:14.319Z,99638.66
2022-09-26T22:18:43.715Z,99640.50
2022-09-26T22:21:12.933Z,99643.25
2022-09-26T22:23:43.470Z,99641.44
2022-09-26T22:26:12.567Z,99641.44
2022-09-26T22:28:41.884Z,99641.44
2022-09-26T22:31:10.989Z,99636.19
2022-09-26T22:33:40.163Z,99637.06
2022-09-26T22:36:09.681Z,99630.91
2022-09-26T22:38:40.570Z,99636.25
2022-09-26T22:41:11.200Z,99630.91
2022-09-26T22:43:40.498Z,99622.88
2022-09-26T22:46:11.952Z,99626.44
2022-09-26T22:48:43.300Z,99616.69
2022-09-26T22:51:13.182Z,99611.34
2022-09-26T22:53:43.236Z,99613.16
2022-09-26T22:56:15.708Z,99605.13
2022-09-26T22:58:47.126Z,99603.31
2022-09-26T23:01:18.394Z,99600.63
2022-09-26T23:03:47.853Z,99597.09
2022-09-26T23:06:17.210Z,99593.44
2022-09-26T23:08:46.322Z,99591.72
2022-09-26T23:11:18.459Z,99597.09
2022-09-26T23:13:47.989Z,99593.53
2022-09-26T23:16:20.206Z,99581.88
2022-09-26T23:18:50.255Z,99585.50
2022-09-26T23:21:21.662Z,99584.56
2022-09-26T23:23:52.586Z,99573.94
2022-09-26T23:26:27.072Z,99583.81
2022-09-26T23:28:58.179Z,99570.50
2022-09-26T23:31:28.679Z,99577.59
2022-09-26T23:33:58.793Z,99573.16
2022-09-26T23:36:28.137Z,99569.66
2022-09-26T23:38:59.406Z,99567.06
2022-09-26T23:41:29.938Z,99565.34
2022-09-26T23:43:59.388Z,99568.03
2022-09-26T23:46:28.579Z,99565.41
2022-09-26T23:48:57.625Z,99566.50
2022-09-26T23:51:26.892Z,99567.44
2022-09-26T23:53:56.329Z,99563.13
2022-09-26T23:56:25.312Z,99562.38
2022-09-26T23:58:57.580Z,99560.72
